createdAt,value
2017-02-12T00:00:55.223Z,923.14
2017-02-12T00:02:09.573Z,923.14
2017-02-12T00:03:23.948Z,923.13
2017-02-12T00:04:38.306Z,923.11
2017-02-12T00:05:52.687Z,923.11
2017-02-12T00:07:07.114Z,923.11
2017-02-12T00:08:21.455Z,923.14
2017-02-12T00:09:35.824Z,923.19
2017-02-12T00:10:49.570Z,923.18
2017-02-12T00:12:03.957Z,923.2
2017-02-12T00:13:17.746Z,923.18
2017-02-12T00:14:32.120Z,923.21
2017-02-12T00:15:46.478Z,923.18
2017-02-12T00:17:00.877Z,923.21
2017-02-12T00:18:15.284Z,923.24
2017-02-12T00:19:29.660Z,923.24
2017-02-12T00:20:44.019Z,923.2
2017-02-12T00:21:58.438Z,923.24
2017-02-12T00:23:12.156Z,923.21
2017-02-12T00:24:26.562Z,923.21
2017-02-12T00:25:40.944Z,923.24
2017-02-12T00:26:55.310Z,923.27
2017-02-12T00:28:09.673Z,923.26
2017-02-12T00:29:22.769Z,923.32
2017-02-12T00:30:37.133Z,923.29
2017-02-12T00:31:50.852Z,923.32
2017-02-12T00:33:04.595Z,923.32
2017-02-12T00:34:18.951Z,923.29
2017-02-12T00:35:33.332Z,923.31
2017-02-12T00:36:47.698Z,923.25
2017-02-12T00:38:01.442Z,923.24
2017-02-12T00:39:15.825Z,923.25
2017-02-12T00:40:30.221Z,923.18
2017-02-12T00:41:44.607Z,923.17
2017-02-12T00:42:58.964Z,923.18
2017-02-12T00:44:13.341Z,923.2
2017-02-12T00:45:27.044Z,923.25
2017-02-12T00:46:41.413Z,923.22
2017-02-12T00:47:55.814Z,923.22
2017-02-12T00:49:10.206Z,923.2
2017-02-12T00:50:23.949Z,923.21
2017-02-12T00:51:38.326Z,923.17
2017-02-12T00:52:52.678Z,923.21
2017-02-12T00:54:07.024Z,923.23
2017-02-12T00:55:20.756Z,923.21
2017-02-12T00:56:35.104Z,923.27
2017-02-12T00:57:49.475Z,923.23
2017-02-12T00:59:03.908Z,923.24
2017-02-12T01:00:17.631Z,923.19
2017-02-12T01:01:31.992Z,923.27
2017-02-12T01:02:46.335Z,923.25
2017-02-12T01:04:00.734Z,923.2
2017-02-12T01:05:15.144Z,923.23
2017-02-12T01:06:29.498Z,923.23
2017-02-12T01:07:43.897Z,923.27
2017-02-12T01:08:58.264Z,923.25
2017-02-12T01:10:12.739Z,923.23
2017-02-12T01:11:27.157Z,923.28
2017-02-12T01:12:40.880Z,923.28
2017-02-12T01:13:55.239Z,923.24
2017-02-12T01:15:08.989Z,923.28
2017-02-12T01:16:22.695Z,923.26
2017-02-12T01:17:37.068Z,923.27
2017-02-12T01:18:51.438Z,923.27
2017-02-12T01:20:05.881Z,923.27
2017-02-12T01:21:18.960Z,923.32
2017-02-12T01:22:33.322Z,923.34
2017-02-12T01:23:47.040Z,923.4
2017-02-12T01:25:01.450Z,923.4
2017-02-12T01:26:15.162Z,923.42
2017-02-12T01:27:29.584Z,923.44
2017-02-12T01:28:43.951Z,923.46
2017-02-12T01:29:58.361Z,923.44
2017-02-12T01:31:12.738Z,923.38
2017-02-12T01:32:26.584Z,923.42
2017-02-12T01:33:41.015Z,923.45
2017-02-12T01:34:55.385Z,923.44
2017-02-12T01:36:09.747Z,923.43
2017-02-12T01:37:24.109Z,923.41
2017-02-12T01:38:37.830Z,923.4
2017-02-12T01:39:52.225Z,923.36
2017-02-12T01:41:06.584Z,923.35
2017-02-12T01:42:20.938Z,923.33
2017-02-12T01:43:35.304Z,923.27
2017-02-12T01:44:49.699Z,923.36
2017-02-12T01:46:04.068Z,923.29
2017-02-12T01:47:18.442Z,923.31
2017-02-12T01:48:32.823Z,923.32
2017-02-12T01:49:47.220Z,923.32
2017-02-12T01:51:01.629Z,923.29
2017-02-12T01:52:14.704Z,923.33
2017-02-12T01:53:29.062Z,923.32
2017-02-12T01:54:43.404Z,923.31
2017-02-12T01:55:57.736Z,923.28
2017-02-12T01:57:12.152Z,923.27
2017-02-12T01:58:26.567Z,923.27
2017-02-12T01:59:40.933Z,923.28
2017-02-12T02:00:55.269Z,923.25
2017-02-12T02:02:08.947Z,923.2
2017-02-12T02:03:23.315Z,923.25
2017-02-12T02:04:37.692Z,923.24
2017-02-12T02:05:52.044Z,923.28
2017-02-12T02:07:06.386Z,923.25
2017-02-12T02:08:20.772Z,923.2
2017-02-12T02:09:35.123Z,923.19
2017-02-12T02:10:49.521Z,923.21
2017-02-12T02:12:03.862Z,923.24
2017-02-12T02:13:18.253Z,923.26
2017-02-12T02:14:32.643Z,923.21
2017-02-12T02:15:47.011Z,923.18
2017-02-12T02:17:01.385Z,923.25
2017-02-12T02:18:15.759Z,923.24
2017-02-12T02:19:30.146Z,923.14
2017-02-12T02:20:44.515Z,923.22
2017-02-12T02:21:58.864Z,923.13
2017-02-12T02:23:12.598Z,923.11
2017-02-12T02:24:26.998Z,923.18
2017-02-12T02:25:41.361Z,923.13
2017-02-12T02:26:55.721Z,923.18
2017-02-12T02:28:10.074Z,923.08
2017-02-12T02:29:24.430Z,923.07
2017-02-12T02:30:38.835Z,923.04
2017-02-12T02:31:53.208Z,923.14
2017-02-12T02:33:07.622Z,923.16
2017-02-12T02:34:21.354Z,923.09
2017-02-12T02:35:35.746Z,923.12
2017-02-12T02:36:50.147Z,923.05
2017-02-12T02:38:03.949Z,923.1
2017-02-12T02:39:17.687Z,923.08
2017-02-12T02:40:32.092Z,923.04
2017-02-12T02:41:46.429Z,923.04
2017-02-12T02:43:00.796Z,923.02
2017-02-12T02:44:14.500Z,923.05
2017-02-12T02:45:28.842Z,922.99
2017-02-12T02:46:43.246Z,923.04
2017-02-12T02:47:57.611Z,923.01
2017-02-12T02:49:12.004Z,922.99
2017-02-12T02:50:26.375Z,923
2017-02-12T02:51:40.792Z,923
2017-02-12T02:52:55.156Z,922.97
2017-02-12T02:54:08.883Z,922.93
2017-02-12T02:55:22.648Z,922.95
2017-02-12T02:56:36.984Z,922.94
2017-02-12T02:57:51.337Z,922.96
2017-02-12T02:59:05.682Z,922.97
2017-02-12T03:00:20.026Z,922.95
2017-02-12T03:01:34.454Z,922.99
2017-02-12T03:02:48.811Z,922.99
2017-02-12T03:04:03.208Z,922.97
2017-02-12T03:05:17.567Z,922.95
2017-02-12T03:06:31.935Z,922.96
2017-02-12T03:07:46.331Z,922.94
2017-02-12T03:09:00.717Z,922.93
2017-02-12T03:10:15.095Z,922.86
2017-02-12T03:11:29.439Z,922.84
2017-02-12T03:12:43.783Z,922.84
2017-02-12T03:13:58.144Z,922.81
2017-02-12T03:15:12.517Z,922.77
2017-02-12T03:16:26.222Z,922.79
2017-02-12T03:17:40.601Z,922.78
2017-02-12T03:18:54.327Z,922.8
2017-02-12T03:20:08.682Z,922.7
2017-02-12T03:21:23.071Z,922.77
2017-02-12T03:22:37.446Z,922.7
2017-02-12T03:23:51.780Z,922.68
2017-02-12T03:25:06.166Z,922.69
2017-02-12T03:26:20.525Z,922.68
2017-02-12T03:27:34.930Z,922.71
2017-02-12T03:28:48.647Z,922.71
2017-02-12T03:30:02.990Z,922.72
2017-02-12T03:31:17.355Z,922.71
2017-02-12T03:32:31.707Z,922.68
2017-02-12T03:33:45.421Z,922.68
2017-02-12T03:34:59.806Z,922.67
2017-02-12T03:36:13.514Z,922.69
2017-02-12T03:37:27.846Z,922.69
2017-02-12T03:38:42.201Z,922.74
2017-02-12T03:39:56.548Z,922.71
2017-02-12T03:41:10.277Z,922.75
2017-02-12T03:42:24.663Z,922.75
2017-02-12T03:43:39.022Z,922.77
2017-02-12T03:44:53.384Z,922.83
2017-02-12T03:46:07.747Z,922.85
2017-02-12T03:47:22.114Z,922.78
2017-02-12T03:48:36.507Z,922.8
2017-02-12T03:49:50.848Z,922.77
2017-02-12T03:51:04.547Z,922.73
2017-02-12T03:52:18.281Z,922.75
2017-02-12T03:53:32.671Z,922.71
2017-02-12T03:54:45.718Z,922.72
2017-02-12T03:56:00.112Z,922.73
2017-02-12T03:57:13.857Z,922.72
2017-02-12T03:58:28.232Z,922.71
2017-02-12T03:59:42.601Z,922.71
2017-02-12T04:00:56.947Z,922.7
2017-02-12T04:02:11.294Z,922.7
2017-02-12T04:03:25.679Z,922.75
2017-02-12T04:04:40.036Z,922.72
2017-02-12T04:05:54.414Z,922.73
2017-02-12T04:07:08.136Z,922.76
2017-02-12T04:08:21.886Z,922.76
2017-02-12T04:09:36.248Z,922.77
2017-02-12T04:10:50.649Z,922.76
2017-02-12T04:12:05.038Z,922.71
2017-02-12T04:13:19.391Z,922.71
2017-02-12T04:14:33.757Z,922.72
2017-02-12T04:15:48.167Z,922.66
2017-02-12T04:17:02.541Z,922.68
2017-02-12T04:18:16.899Z,922.64
2017-02-12T04:19:31.282Z,922.65
2017-02-12T04:20:45.619Z,922.6
2017-02-12T04:22:00.006Z,922.61
2017-02-12T04:23:14.374Z,922.58
2017-02-12T04:24:28.780Z,922.62
2017-02-12T04:25:43.146Z,922.58
2017-02-12T04:26:57.576Z,922.54
2017-02-12T04:28:11.932Z,922.55
2017-02-12T04:29:26.315Z,922.53
2017-02-12T04:30:40.698Z,922.52
2017-02-12T04:31:55.118Z,922.52
2017-02-12T04:33:08.822Z,922.54
2017-02-12T04:34:23.158Z,922.53
2017-02-12T04:35:37.542Z,922.51
2017-02-12T04:36:51.910Z,922.51
2017-02-12T04:38:06.298Z,922.51
2017-02-12T04:39:20.634Z,922.46
2017-02-12T04:40:35.064Z,922.45
2017-02-12T04:41:49.418Z,922.43
2017-02-12T04:43:03.903Z,922.45
2017-02-12T04:44:23.991Z,922.46
2017-02-12T04:45:38.364Z,922.44
2017-02-12T04:46:52.694Z,922.44
2017-02-12T04:48:07.074Z,922.46
2017-02-12T04:49:20.834Z,922.42
2017-02-12T04:50:35.189Z,922.36
2017-02-12T04:51:49.567Z,922.37
2017-02-12T04:53:03.904Z,922.36
2017-02-12T04:54:18.225Z,922.34
2017-02-12T04:55:32.560Z,922.35
2017-02-12T04:56:46.276Z,922.33
2017-02-12T04:58:00.699Z,922.33
2017-02-12T04:59:15.088Z,922.26
2017-02-12T05:00:29.483Z,922.27
2017-02-12T05:01:43.873Z,922.29
2017-02-12T05:02:58.237Z,922.26
2017-02-12T05:04:11.950Z,922.27
2017-02-12T05:05:26.312Z,922.27
2017-02-12T05:06:40.638Z,922.26
2017-02-12T05:07:54.981Z,922.25
2017-02-12T05:09:08.696Z,922.21
2017-02-12T05:10:23.058Z,922.2
2017-02-12T05:11:37.396Z,922.18
2017-02-12T05:12:51.752Z,922.22
2017-02-12T05:14:06.088Z,922.2
2017-02-12T05:15:19.818Z,922.2
2017-02-12T05:16:34.215Z,922.18
2017-02-12T05:17:48.576Z,922.22
2017-02-12T05:19:02.943Z,922.27
2017-02-12T05:20:16.644Z,922.21
2017-02-12T05:21:31.012Z,922.23
2017-02-12T05:22:45.345Z,922.16
2017-02-12T05:23:59.787Z,922.16
2017-02-12T05:25:14.136Z,922.13
2017-02-12T05:26:28.482Z,922.16
2017-02-12T05:27:42.890Z,922.21
2017-02-12T05:28:57.279Z,922.23
2017-02-12T05:30:11.635Z,922.25
2017-02-12T05:31:25.987Z,922.24
2017-02-12T05:32:40.360Z,922.18
2017-02-12T05:33:54.737Z,922.23
2017-02-12T05:35:09.105Z,922.21
2017-02-12T05:36:23.499Z,922.17
2017-02-12T05:37:37.889Z,922.19
2017-02-12T05:38:52.217Z,922.15
2017-02-12T05:40:06.537Z,922.16
2017-02-12T05:41:19.590Z,922.15
2017-02-12T05:42:33.927Z,922.12
2017-02-12T05:43:48.292Z,922.15
2017-02-12T05:45:02.657Z,922.08
2017-02-12T05:46:16.967Z,922.09
2017-02-12T05:47:32.499Z,922.16
2017-02-12T05:48:46.894Z,922.16
2017-02-12T05:50:01.236Z,922.14
2017-02-12T05:51:15.617Z,922.17
2017-02-12T05:52:29.994Z,922.19
2017-02-12T05:53:44.377Z,922.18
2017-02-12T05:54:58.741Z,922.23
2017-02-12T05:56:12.453Z,922.17
2017-02-12T05:57:26.802Z,922.16
2017-02-12T05:58:41.140Z,922.19
2017-02-12T05:59:54.857Z,922.16
2017-02-12T06:01:09.224Z,922.18
2017-02-12T06:02:23.567Z,922.15
2017-02-12T06:03:37.914Z,922.16
2017-02-12T06:04:52.279Z,922.18
2017-02-12T06:06:06.656Z,922.15
2017-02-12T06:07:20.354Z,922.21
2017-02-12T06:08:34.755Z,922.19
2017-02-12T06:09:49.153Z,922.19
2017-02-12T06:11:03.600Z,922.19
2017-02-12T06:12:17.943Z,922.21
2017-02-12T06:13:32.313Z,922.2
2017-02-12T06:14:46.702Z,922.19
2017-02-12T06:16:01.059Z,922.24
2017-02-12T06:17:14.122Z,922.19
2017-02-12T06:18:28.511Z,922.21
2017-02-12T06:19:42.827Z,922.24
2017-02-12T06:20:57.235Z,922.24
2017-02-12T06:22:11.601Z,922.25
2017-02-12T06:23:26.012Z,922.27
2017-02-12T06:24:40.402Z,922.28
2017-02-12T06:25:54.738Z,922.29
2017-02-12T06:27:08.486Z,922.3
2017-02-12T06:28:22.234Z,922.27
2017-02-12T06:29:36.590Z,922.29
2017-02-12T06:30:50.315Z,922.27
2017-02-12T06:32:04.673Z,922.24
2017-02-12T06:33:19.043Z,922.22
2017-02-12T06:34:33.413Z,922.23
2017-02-12T06:35:47.795Z,922.24
2017-02-12T06:37:02.165Z,922.23
2017-02-12T06:38:16.527Z,922.23
2017-02-12T06:39:30.945Z,922.25
2017-02-12T06:40:45.356Z,922.24
2017-02-12T06:41:59.741Z,922.22
2017-02-12T06:43:14.085Z,922.2
2017-02-12T06:44:28.449Z,922.24
2017-02-12T06:45:42.215Z,922.23
2017-02-12T06:46:56.555Z,922.2
2017-02-12T06:48:10.931Z,922.22
2017-02-12T06:49:25.301Z,922.24
2017-02-12T06:50:39.623Z,922.23
2017-02-12T06:51:54.002Z,922.28
2017-02-12T06:53:08.397Z,922.31
2017-02-12T06:54:22.113Z,922.28
2017-02-12T06:55:36.583Z,922.32
2017-02-12T06:56:51.616Z,922.31
2017-02-12T06:58:05.965Z,922.32
2017-02-12T06:59:19.747Z,922.39
2017-02-12T07:00:34.129Z,922.41
2017-02-12T07:01:48.476Z,922.39
2017-02-12T07:03:02.820Z,922.41
2017-02-12T07:04:17.184Z,922.43
2017-02-12T07:05:31.522Z,922.39
2017-02-12T07:06:45.874Z,922.44
2017-02-12T07:08:00.251Z,922.47
2017-02-12T07:09:14.566Z,922.48
2017-02-12T07:10:28.907Z,922.45
2017-02-12T07:11:43.272Z,922.45
2017-02-12T07:12:57.619Z,922.39
2017-02-12T07:14:11.303Z,922.41
2017-02-12T07:15:25.028Z,922.39
2017-02-12T07:16:39.384Z,922.44
2017-02-12T07:17:53.724Z,922.47
2017-02-12T07:19:08.125Z,922.44
2017-02-12T07:20:22.472Z,922.42
2017-02-12T07:21:36.831Z,922.46
2017-02-12T07:22:51.179Z,922.44
2017-02-12T07:24:05.598Z,922.48
2017-02-12T07:25:19.316Z,922.44
2017-02-12T07:26:33.718Z,922.49
2017-02-12T07:27:48.074Z,922.5
2017-02-12T07:29:02.463Z,922.49
2017-02-12T07:30:16.826Z,922.5
2017-02-12T07:31:31.212Z,922.46
2017-02-12T07:32:45.587Z,922.47
2017-02-12T07:33:59.975Z,922.45
2017-02-12T07:35:13.717Z,922.46
2017-02-12T07:36:28.066Z,922.44
2017-02-12T07:37:42.431Z,922.47
2017-02-12T07:38:56.788Z,922.44
2017-02-12T07:40:11.164Z,922.4
2017-02-12T07:41:25.519Z,922.44
2017-02-12T07:42:39.892Z,922.48
2017-02-12T07:43:54.251Z,922.49
2017-02-12T07:45:08.587Z,922.53
2017-02-12T07:46:22.285Z,922.56
2017-02-12T07:47:36.689Z,922.52
2017-02-12T07:48:51.083Z,922.55
2017-02-12T07:50:05.463Z,922.54
2017-02-12T07:51:19.212Z,922.49
2017-02-12T07:52:33.591Z,922.52
2017-02-12T07:53:47.955Z,922.52
2017-02-12T07:55:02.304Z,922.55
2017-02-12T07:56:16.704Z,922.56
2017-02-12T07:57:31.063Z,922.59
2017-02-12T07:58:45.418Z,922.64
2017-02-12T07:59:59.755Z,922.66
2017-02-12T08:01:14.145Z,922.63
2017-02-12T08:02:28.516Z,922.63
2017-02-12T08:03:42.891Z,922.64
2017-02-12T08:04:57.207Z,922.62
2017-02-12T08:06:11.629Z,922.62
2017-02-12T08:07:26.039Z,922.65
2017-02-12T08:08:40.404Z,922.68
2017-02-12T08:09:54.741Z,922.68
2017-02-12T08:11:09.106Z,922.6
2017-02-12T08:12:23.505Z,922.68
2017-02-12T08:13:37.880Z,922.68
2017-02-12T08:14:52.279Z,922.66
2017-02-12T08:16:06.615Z,922.69
2017-02-12T08:17:19.691Z,922.71
2017-02-12T08:18:34.098Z,922.66
2017-02-12T08:19:48.488Z,922.71
2017-02-12T08:21:02.849Z,922.7
2017-02-12T08:22:17.230Z,922.74
2017-02-12T08:23:31.596Z,922.7
2017-02-12T08:24:45.939Z,922.74
2017-02-12T08:26:00.290Z,922.69
2017-02-12T08:27:14.669Z,922.71
2017-02-12T08:28:29.019Z,922.7
2017-02-12T08:29:43.424Z,922.69
2017-02-12T08:30:57.808Z,922.69
2017-02-12T08:32:11.508Z,922.72
2017-02-12T08:33:25.891Z,922.74
2017-02-12T08:34:40.283Z,922.75
2017-02-12T08:35:54.643Z,922.78
2017-02-12T08:37:09.021Z,922.81
2017-02-12T08:38:22.758Z,922.82
2017-02-12T08:39:37.104Z,922.83
2017-02-12T08:40:51.477Z,922.88
2017-02-12T08:42:05.859Z,922.9
2017-02-12T08:43:20.249Z,922.89
2017-02-12T08:44:34.676Z,922.9
2017-02-12T08:45:49.059Z,922.91
2017-02-12T08:47:03.393Z,922.93
2017-02-12T08:48:17.129Z,922.95
2017-02-12T08:49:31.511Z,922.95
2017-02-12T08:50:45.925Z,922.95
2017-02-12T08:52:00.263Z,923
2017-02-12T08:53:14.602Z,922.99
2017-02-12T08:54:28.959Z,923.02
2017-02-12T08:55:43.362Z,923.04
2017-02-12T08:56:57.751Z,923.03
2017-02-12T08:58:12.107Z,923.08
2017-02-12T08:59:26.476Z,923.04
2017-02-12T09:00:40.818Z,923.1
2017-02-12T09:01:55.178Z,923.12
2017-02-12T09:03:08.904Z,923.13
2017-02-12T09:04:23.311Z,923.12
2017-02-12T09:05:37.686Z,923.15
2017-02-12T09:06:52.088Z,923.2
2017-02-12T09:08:06.470Z,923.22
2017-02-12T09:09:20.204Z,923.19
2017-02-12T09:10:34.653Z,923.18
2017-02-12T09:11:49.136Z,923.18
2017-02-12T09:13:03.529Z,923.21
2017-02-12T09:14:17.869Z,923.27
2017-02-12T09:15:32.229Z,923.26
2017-02-12T09:16:46.575Z,923.31
2017-02-12T09:18:00.956Z,923.35
2017-02-12T09:19:14.664Z,923.32
2017-02-12T09:20:29.033Z,923.39
2017-02-12T09:21:43.405Z,923.43
2017-02-12T09:22:57.734Z,923.43
2017-02-12T09:24:12.117Z,923.44
2017-02-12T09:25:26.499Z,923.48
2017-02-12T09:26:40.875Z,923.52
2017-02-12T09:27:55.251Z,923.54
2017-02-12T09:29:08.958Z,923.55
2017-02-12T09:30:22.674Z,923.56
2017-02-12T09:31:37.067Z,923.6
2017-02-12T09:32:50.862Z,923.63
2017-02-12T09:34:04.585Z,923.65
2017-02-12T09:35:18.935Z,923.7
2017-02-12T09:36:33.301Z,923.67
2017-02-12T09:37:47.663Z,923.75
2017-02-12T09:39:01.374Z,923.76
2017-02-12T09:40:15.699Z,923.74
2017-02-12T09:41:29.453Z,923.74
2017-02-12T09:42:43.829Z,923.74
2017-02-12T09:43:58.214Z,923.76
2017-02-12T09:45:12.575Z,923.74
2017-02-12T09:46:26.323Z,923.77
2017-02-12T09:47:40.716Z,923.74
2017-02-12T09:48:55.090Z,923.71
2017-02-12T09:50:09.455Z,923.74
2017-02-12T09:51:23.156Z,923.66
2017-02-12T09:52:37.476Z,923.7
2017-02-12T09:53:51.260Z,923.65
2017-02-12T09:55:05.668Z,923.66
2017-02-12T09:56:19.999Z,923.65
2017-02-12T09:57:34.354Z,923.63
2017-02-12T09:58:48.716Z,923.64
2017-02-12T10:00:03.078Z,923.68
2017-02-12T10:01:16.804Z,923.67
2017-02-12T10:02:31.160Z,923.74
2017-02-12T10:03:44.889Z,923.71
2017-02-12T10:04:59.241Z,923.7
2017-02-12T10:06:12.977Z,923.71
2017-02-12T10:07:27.343Z,923.73
2017-02-12T10:08:41.741Z,923.73
2017-02-12T10:09:56.096Z,923.75
2017-02-12T10:11:10.483Z,923.76
2017-02-12T10:12:24.834Z,923.73
2017-02-12T10:13:39.233Z,923.75
2017-02-12T10:14:53.575Z,923.77
2017-02-12T10:16:07.286Z,923.78
2017-02-12T10:17:21.022Z,923.73
2017-02-12T10:18:35.429Z,923.79
2017-02-12T10:19:49.794Z,923.79
2017-02-12T10:21:03.528Z,923.81
2017-02-12T10:22:17.243Z,923.79
2017-02-12T10:23:31.611Z,923.77
2017-02-12T10:24:45.965Z,923.78
2017-02-12T10:26:00.352Z,923.8
2017-02-12T10:27:14.724Z,923.81
2017-02-12T10:28:29.134Z,923.81
2017-02-12T10:29:43.489Z,923.8
2017-02-12T10:30:57.842Z,923.74
2017-02-12T10:32:12.227Z,923.79
2017-02-12T10:33:25.938Z,923.83
2017-02-12T10:34:40.296Z,923.8
2017-02-12T10:35:54.710Z,923.82
2017-02-12T10:37:09.069Z,923.8
2017-02-12T10:38:22.779Z,923.83
2017-02-12T10:39:37.153Z,923.82
2017-02-12T10:40:51.517Z,923.82
2017-02-12T10:42:05.935Z,923.83
2017-02-12T10:43:19.653Z,923.81
2017-02-12T10:44:34.025Z,923.82
2017-02-12T10:45:48.405Z,923.8
2017-02-12T10:47:02.782Z,923.87
2017-02-12T10:48:17.150Z,923.87
2017-02-12T10:49:31.501Z,923.88
2017-02-12T10:50:45.845Z,923.84
2017-02-12T10:52:00.185Z,923.83
2017-02-12T10:53:12.659Z,923.81
2017-02-12T10:54:26.413Z,923.85
2017-02-12T10:55:40.788Z,923.82
2017-02-12T10:56:55.159Z,923.81
2017-02-12T10:58:09.537Z,923.85
2017-02-12T10:59:22.661Z,923.82
2017-02-12T11:00:37.024Z,923.83
2017-02-12T11:01:51.418Z,923.86
2017-02-12T11:03:05.768Z,923.88
2017-02-12T11:04:19.537Z,923.9
2017-02-12T11:05:33.922Z,923.9
2017-02-12T11:06:47.650Z,923.83
2017-02-12T11:08:02.017Z,923.88
2017-02-12T11:09:15.725Z,923.92
2017-02-12T11:10:30.124Z,923.93
2017-02-12T11:11:44.492Z,923.9
2017-02-12T11:12:58.872Z,923.89
2017-02-12T11:14:13.241Z,923.87
2017-02-12T11:15:27.645Z,923.83
2017-02-12T11:16:42.072Z,923.83
2017-02-12T11:17:55.802Z,923.88
2017-02-12T11:19:10.191Z,923.84
2017-02-12T11:20:24.570Z,923.78
2017-02-12T11:21:38.891Z,923.82
2017-02-12T11:22:53.256Z,923.84
2017-02-12T11:24:07.639Z,923.84
2017-02-12T11:25:21.375Z,923.8
2017-02-12T11:26:35.731Z,923.9
2017-02-12T11:27:50.086Z,923.89
2017-02-12T11:29:04.459Z,923.88
2017-02-12T11:30:18.853Z,923.85
2017-02-12T11:31:33.255Z,923.86
2017-02-12T11:32:47.610Z,923.84
2017-02-12T11:34:02.020Z,923.87
2017-02-12T11:35:15.758Z,923.83
2017-02-12T11:36:30.192Z,923.91
2017-02-12T11:37:44.558Z,923.92
2017-02-12T11:38:58.888Z,923.83
2017-02-12T11:40:13.275Z,923.86
2017-02-12T11:41:27.647Z,923.85
2017-02-12T11:42:42.066Z,923.85
2017-02-12T11:43:56.479Z,923.94
2017-02-12T11:45:10.851Z,923.88
2017-02-12T11:46:25.248Z,923.88
2017-02-12T11:47:39.292Z,923.89
2017-02-12T11:48:54.625Z,923.9
2017-02-12T11:50:08.348Z,923.91
2017-02-12T11:51:21.412Z,923.91
2017-02-12T11:52:35.791Z,923.9
2017-02-12T11:53:50.180Z,923.93
2017-02-12T11:55:04.562Z,923.93
2017-02-12T11:56:18.961Z,923.89
2017-02-12T11:57:33.341Z,923.92
2017-02-12T11:58:47.744Z,923.89
2017-02-12T12:00:02.104Z,923.91
2017-02-12T12:01:15.823Z,923.94
2017-02-12T12:02:30.196Z,923.9
2017-02-12T12:03:44.576Z,923.89
2017-02-12T12:04:58.923Z,923.89
2017-02-12T12:06:12.646Z,923.87
2017-02-12T12:07:27.060Z,923.87
2017-02-12T12:08:41.421Z,923.94
2017-02-12T12:09:55.795Z,923.91
2017-02-12T12:11:10.180Z,923.97
2017-02-12T12:12:23.923Z,923.97
2017-02-12T12:13:38.314Z,923.92
2017-02-12T12:14:52.712Z,923.99
2017-02-12T12:16:07.109Z,923.9
2017-02-12T12:17:20.828Z,923.91
2017-02-12T12:18:35.210Z,923.93
2017-02-12T12:19:49.612Z,923.89
2017-02-12T12:21:03.985Z,923.82
2017-02-12T12:22:18.371Z,923.85
2017-02-12T12:23:32.736Z,923.83
2017-02-12T12:24:47.155Z,923.84
2017-02-12T12:26:01.553Z,923.83
2017-02-12T12:27:14.666Z,923.82
2017-02-12T12:28:29.035Z,923.87
2017-02-12T12:29:43.425Z,923.73
2017-02-12T12:30:57.793Z,923.71
2017-02-12T12:32:11.490Z,923.79
2017-02-12T12:33:25.891Z,923.79
2017-02-12T12:34:40.275Z,923.84
2017-02-12T12:35:54.688Z,923.74
2017-02-12T12:37:08.428Z,923.74
2017-02-12T12:38:21.510Z,923.78
2017-02-12T12:39:35.889Z,923.63
2017-02-12T12:40:50.246Z,923.67
2017-02-12T12:42:04.617Z,923.71
2017-02-12T12:43:18.332Z,923.66
2017-02-12T12:44:32.746Z,923.7
2017-02-12T12:45:46.494Z,923.66
2017-02-12T12:47:00.864Z,923.71
2017-02-12T12:48:14.613Z,923.69
2017-02-12T12:49:28.982Z,923.72
2017-02-12T12:50:42.765Z,923.67
2017-02-12T12:51:56.496Z,923.73
2017-02-12T12:53:10.884Z,923.67
2017-02-12T12:54:43.811Z,923.66
2017-02-12T12:55:58.166Z,923.69
2017-02-12T12:57:11.919Z,923.71
2017-02-12T12:58:26.305Z,923.74
2017-02-12T12:59:40.654Z,923.7
2017-02-12T13:00:55.038Z,923.66
2017-02-12T13:02:08.770Z,923.67
2017-02-12T13:03:22.494Z,923.71
2017-02-12T13:04:36.872Z,923.63
2017-02-12T13:05:51.242Z,923.68
2017-02-12T13:07:05.609Z,923.64
2017-02-12T13:08:20.051Z,923.64
2017-02-12T13:09:34.391Z,923.65
2017-02-12T13:10:48.742Z,923.67
2017-02-12T13:12:03.151Z,923.71
2017-02-12T13:13:16.901Z,923.65
2017-02-12T13:14:31.311Z,923.6
2017-02-12T13:15:45.685Z,923.62
2017-02-12T13:17:00.080Z,923.65
2017-02-12T13:18:14.460Z,923.67
2017-02-12T13:19:28.859Z,923.62
2017-02-12T13:20:43.233Z,923.62
2017-02-12T13:21:57.650Z,923.64
2017-02-12T13:23:10.715Z,923.6
2017-02-12T13:24:25.168Z,923.62
2017-02-12T13:25:38.917Z,923.63
2017-02-12T13:26:53.284Z,923.63
2017-02-12T13:28:07.671Z,923.6
2017-02-12T13:29:22.028Z,923.64
2017-02-12T13:30:36.397Z,923.56
2017-02-12T13:31:50.123Z,923.56
2017-02-12T13:33:04.486Z,923.6
2017-02-12T13:34:18.819Z,923.57
2017-02-12T13:35:33.227Z,923.59
2017-02-12T13:36:47.592Z,923.54
2017-02-12T13:38:01.335Z,923.56
2017-02-12T13:39:15.753Z,923.55
2017-02-12T13:40:30.129Z,923.48
2017-02-12T13:41:44.569Z,923.52
2017-02-12T13:42:58.269Z,923.55
2017-02-12T13:44:12.653Z,923.56
2017-02-12T13:45:25.745Z,923.58
2017-02-12T13:46:40.130Z,923.57
2017-02-12T13:47:54.497Z,923.56
2017-02-12T13:49:08.900Z,923.45
2017-02-12T13:50:22.645Z,923.52
2017-02-12T13:51:37.092Z,923.47
2017-02-12T13:52:51.431Z,923.41
2017-02-12T13:54:05.804Z,923.48
2017-02-12T13:55:19.541Z,923.41
2017-02-12T13:56:33.933Z,923.44
2017-02-12T13:57:48.320Z,923.46
2017-02-12T13:59:02.729Z,923.42
2017-02-12T14:00:16.462Z,923.48
2017-02-12T14:01:30.804Z,923.42
2017-02-12T14:02:45.189Z,923.38
2017-02-12T14:03:59.570Z,923.4
2017-02-12T14:05:14.009Z,923.39
2017-02-12T14:06:28.386Z,923.41
2017-02-12T14:07:42.790Z,923.37
2017-02-12T14:08:57.171Z,923.35
2017-02-12T14:10:11.536Z,923.31
2017-02-12T14:11:25.314Z,923.3
2017-02-12T14:12:39.679Z,923.29
2017-02-12T14:13:54.053Z,923.31
2017-02-12T14:15:08.422Z,923.32
2017-02-12T14:16:22.815Z,923.31
2017-02-12T14:17:37.214Z,923.25
2017-02-12T14:18:50.321Z,923.23
2017-02-12T14:20:04.719Z,923.23
2017-02-12T14:21:19.094Z,923.22
2017-02-12T14:22:33.474Z,923.15
2017-02-12T14:23:47.865Z,923.15
2017-02-12T14:25:02.298Z,923.11
2017-02-12T14:26:16.005Z,923.17
2017-02-12T14:27:30.350Z,923.08
2017-02-12T14:28:44.717Z,923.09
2017-02-12T14:29:58.437Z,923.14
2017-02-12T14:31:12.925Z,923.05
2017-02-12T14:32:27.361Z,923.09
2017-02-12T14:33:41.731Z,923.04
2017-02-12T14:34:56.103Z,923.1
2017-02-12T14:36:10.499Z,923.05
2017-02-12T14:37:24.879Z,923
2017-02-12T14:38:39.267Z,922.96
2017-02-12T14:39:53.641Z,922.98
2017-02-12T14:41:08.031Z,922.94
2017-02-12T14:42:22.424Z,922.99
2017-02-12T14:43:36.819Z,922.92
2017-02-12T14:44:51.197Z,922.97
2017-02-12T14:46:05.575Z,922.95
2017-02-12T14:47:19.367Z,922.93
2017-02-12T14:48:33.779Z,922.88
2017-02-12T14:49:48.146Z,922.92
2017-02-12T14:51:02.508Z,922.9
2017-02-12T14:52:16.916Z,922.8
2017-02-12T14:53:31.318Z,922.85
2017-02-12T14:54:45.744Z,922.83
2017-02-12T14:56:00.168Z,922.77
2017-02-12T14:57:14.534Z,922.71
2017-02-12T14:58:28.880Z,922.74
2017-02-12T14:59:43.231Z,922.73
2017-02-12T15:00:56.960Z,922.68
2017-02-12T15:02:11.366Z,922.67
2017-02-12T15:03:25.727Z,922.68
2017-02-12T15:04:40.096Z,922.68
2017-02-12T15:05:54.459Z,922.66
2017-02-12T15:07:08.894Z,922.66
2017-02-12T15:08:23.311Z,922.67
2017-02-12T15:09:37.701Z,922.72
2017-02-12T15:10:52.137Z,922.64
2017-02-12T15:12:06.530Z,922.63
2017-02-12T15:13:20.869Z,922.61
2017-02-12T15:14:35.239Z,922.55
2017-02-12T15:15:49.681Z,922.54
2017-02-12T15:17:02.138Z,922.52
2017-02-12T15:18:16.521Z,922.47
2017-02-12T15:19:30.940Z,922.49
2017-02-12T15:20:45.358Z,922.51
2017-02-12T15:21:59.718Z,922.54
2017-02-12T15:23:14.080Z,922.52
2017-02-12T15:24:28.441Z,922.54
2017-02-12T15:25:42.165Z,922.52
2017-02-12T15:26:55.970Z,922.51
2017-02-12T15:28:10.369Z,922.5
2017-02-12T15:29:24.114Z,922.53